createdAt,value
2023-10-12T00:02:16.362Z,16.00
2023-10-12T00:04:54.683Z,15.20
2023-10-12T00:07:35.525Z,14.20
2023-10-12T00:10:23.268Z,15.30
2023-10-12T00:13:00.981Z,18.50
2023-10-12T00:15:39.919Z,15.10
2023-10-12T00:18:15.960Z,16.70
2023-10-12T00:20:54.982Z,18.60
2023-10-12T00:23:28.455Z,13.40
2023-10-12T00:26:06.195Z,14.60
2023-10-12T00:28:40.238Z,15.70
2023-10-12T00:31:19.420Z,13.30
2023-10-12T00:33:53.050Z,16.70
2023-10-12T00:36:26.589Z,17.00
2023-10-12T00:39:01.239Z,14.50
2023-10-12T00:41:37.288Z,18.10
2023-10-12T00:44:12.822Z,13.60
2023-10-12T00:47:08.090Z,14.50
2023-10-12T00:49:49.960Z,15.60
2023-10-12T00:52:26.874Z,13.40
2023-10-12T00:55:15.004Z,13.30
2023-10-12T00:57:51.012Z,16.60
2023-10-12T01:00:25.777Z,13.10
2023-10-12T01:03:28.175Z,13.40
2023-10-12T01:06:22.349Z,12.90
2023-10-12T01:08:58.900Z,15.70
2023-10-12T01:11:35.617Z,14.70
2023-10-12T01:14:10.889Z,14.20
2023-10-12T01:16:46.909Z,11.00
2023-10-12T01:19:23.664Z,12.70
2023-10-12T01:22:02.527Z,12.30
2023-10-12T01:27:09.972Z,16.10
2023-10-12T01:29:44.161Z,12.10
2023-10-12T01:32:29.264Z,11.10
2023-10-12T01:35:05.754Z,10.50
2023-10-12T01:37:48.647Z,12.60
2023-10-12T01:40:25.635Z,13.90
2023-10-12T01:42:59.101Z,13.20
2023-10-12T01:45:42.655Z,11.60
2023-10-12T01:48:23.525Z,10.30
2023-10-12T01:50:57.234Z,11.10
2023-10-12T01:53:33.468Z,11.80
2023-10-12T01:56:11.397Z,15.50
2023-10-12T01:58:45.402Z,13.40
2023-10-12T02:01:21.909Z,13.30
2023-10-12T02:03:57.102Z,9.00
2023-10-12T02:06:30.826Z,12.60
2023-10-12T02:09:10.039Z,11.20
2023-10-12T02:11:46.939Z,11.50
2023-10-12T02:14:34.027Z,10.90
2023-10-12T02:17:07.758Z,11.10
2023-10-12T02:19:43.511Z,9.00
2023-10-12T02:22:25.851Z,10.90
2023-10-12T02:25:18.524Z,11.20
2023-10-12T02:27:56.524Z,11.10
2023-10-12T02:30:30.355Z,9.50
2023-10-12T02:33:09.721Z,8.70
2023-10-12T02:35:45.870Z,13.30
2023-10-12T02:38:21.125Z,9.80
2023-10-12T02:40:59.208Z,8.80
2023-10-12T02:43:34.590Z,12.80
2023-10-12T02:46:13.332Z,14.00
2023-10-12T02:48:48.849Z,11.70
2023-10-12T02:51:24.052Z,10.70
2023-10-12T02:54:03.853Z,9.50
2023-10-12T02:56:37.962Z,10.20
2023-10-12T02:59:11.635Z,12.10
2023-10-12T03:01:50.351Z,13.30
2023-10-12T03:04:25.940Z,10.70
2023-10-12T03:07:11.687Z,13.30
2023-10-12T03:09:52.168Z,11.80
2023-10-12T03:12:28.253Z,10.70
2023-10-12T03:15:04.910Z,11.00
2023-10-12T03:17:38.502Z,8.60
2023-10-12T03:20:23.518Z,10.20
2023-10-12T03:25:40.046Z,8.80
2023-10-12T03:28:30.416Z,12.90
2023-10-12T03:31:16.710Z,10.30
2023-10-12T03:33:55.313Z,10.50
2023-10-12T03:36:33.936Z,9.60
2023-10-12T03:39:24.777Z,8.00
2023-10-12T03:42:11.285Z,9.80
2023-10-12T03:44:55.228Z,9.20
2023-10-12T03:47:33.061Z,7.20
2023-10-12T03:50:11.401Z,9.60
2023-10-12T03:52:53.400Z,9.20
2023-10-12T03:55:28.525Z,12.00
2023-10-12T03:58:08.182Z,10.70
2023-10-12T04:00:49.774Z,9.50
2023-10-12T04:03:36.766Z,8.90
2023-10-12T04:06:24.670Z,9.60
2023-10-12T04:09:00.293Z,9.20
2023-10-12T04:11:54.212Z,11.20
2023-10-12T04:14:49.269Z,12.90
2023-10-12T04:17:49.528Z,11.00
2023-10-12T04:20:24.701Z,10.90
2023-10-12T04:23:12.046Z,12.70
2023-10-12T04:25:50.877Z,11.30
2023-10-12T04:28:25.269Z,9.00
2023-10-12T04:31:19.392Z,9.40
2023-10-12T04:34:06.526Z,9.80
2023-10-12T04:36:46.276Z,9.90
2023-10-12T04:39:26.294Z,8.20
2023-10-12T04:42:06.350Z,9.10
2023-10-12T04:44:45.110Z,9.10
2023-10-12T04:47:22.054Z,12.90
2023-10-12T04:49:58.667Z,9.50
2023-10-12T04:52:37.726Z,9.40
2023-10-12T04:55:24.356Z,8.90
2023-10-12T04:58:17.972Z,10.10
2023-10-12T05:00:56.741Z,9.70
2023-10-12T05:03:37.068Z,7.30
2023-10-12T05:06:14.263Z,10.10
2023-10-12T05:08:47.723Z,11.30
2023-10-12T05:11:22.316Z,12.60
2023-10-12T05:13:55.814Z,11.80
2023-10-12T05:16:31.907Z,13.00
2023-10-12T05:19:05.560Z,10.90
2023-10-12T05:21:39.234Z,12.40
2023-10-12T05:24:13.217Z,10.50
2023-10-12T05:26:53.521Z,16.40
2023-10-12T05:29:36.236Z,11.40
2023-10-12T05:32:19.937Z,15.20
2023-10-12T05:34:53.801Z,11.70
2023-10-12T05:37:28.225Z,13.80
2023-10-12T05:40:01.999Z,14.50
2023-10-12T05:42:40.725Z,11.80
2023-10-12T05:45:22.839Z,15.10
2023-10-12T05:47:56.289Z,13.80
2023-10-12T05:50:32.240Z,15.10
2023-10-12T05:53:08.286Z,9.10
2023-10-12T05:55:42.404Z,12.40
2023-10-12T05:58:16.849Z,14.90
2023-10-12T06:00:53.830Z,10.70
2023-10-12T06:03:27.638Z,12.90
2023-10-12T06:06:01.562Z,10.20
2023-10-12T06:08:36.134Z,10.60
2023-10-12T06:11:11.204Z,11.70
2023-10-12T06:13:45.616Z,15.90
2023-10-12T06:16:22.213Z,13.20
2023-10-12T06:18:56.111Z,12.70
2023-10-12T06:21:30.694Z,12.60
2023-10-12T06:24:06.593Z,11.40
2023-10-12T06:26:45.564Z,13.20
2023-10-12T06:29:27.694Z,10.10
2023-10-12T06:32:01.157Z,12.90
2023-10-12T06:34:36.477Z,13.60
2023-10-12T06:37:30.647Z,10.60
2023-10-12T06:40:38.645Z,9.60
2023-10-12T06:43:29.372Z,14.80
2023-10-12T06:46:05.514Z,8.70
2023-10-12T06:48:48.182Z,12.10
2023-10-12T06:51:21.508Z,9.70
2023-10-12T06:54:06.824Z,9.00
2023-10-12T06:56:41.006Z,12.80
2023-10-12T06:59:22.759Z,11.50
2023-10-12T07:02:10.628Z,13.00
2023-10-12T07:04:55.154Z,10.30
2023-10-12T07:07:31.616Z,13.60
2023-10-12T07:10:14.581Z,10.50
2023-10-12T07:12:49.071Z,11.10
2023-10-12T07:15:25.167Z,13.70
2023-10-12T07:17:58.673Z,10.30
2023-10-12T07:20:42.053Z,14.30
2023-10-12T07:23:20.432Z,12.60
2023-10-12T07:26:00.222Z,9.50
2023-10-12T07:28:34.680Z,12.50
2023-10-12T07:31:26.245Z,12.00
2023-10-12T07:34:08.107Z,10.80
2023-10-12T07:36:54.072Z,10.70
2023-10-12T07:39:41.867Z,13.60
2023-10-12T07:42:25.767Z,8.70
2023-10-12T07:45:00.849Z,12.70
2023-10-12T07:47:41.836Z,8.10
2023-10-12T07:50:24.192Z,9.90
2023-10-12T07:53:08.064Z,12.00
2023-10-12T07:55:44.248Z,13.00
2023-10-12T07:58:19.883Z,13.40
2023-10-12T08:01:20.479Z,11.40
2023-10-12T08:03:55.277Z,12.70
2023-10-12T08:06:43.522Z,12.00
2023-10-12T08:09:35.908Z,10.80
2023-10-12T08:12:23.927Z,13.50
2023-10-12T08:15:10.767Z,12.80
2023-10-12T08:17:47.098Z,9.70
2023-10-12T08:20:40.405Z,11.40
2023-10-12T08:23:19.053Z,8.90
2023-10-12T08:28:37.888Z,9.60
2023-10-12T08:34:01.703Z,15.70
2023-10-12T08:36:47.338Z,10.60
2023-10-12T08:39:32.330Z,11.30
2023-10-12T08:42:37.856Z,8.10
2023-10-12T08:47:52.199Z,13.40
2023-10-12T08:50:44.540Z,7.60
2023-10-12T08:53:24.751Z,10.00
2023-10-12T08:55:58.331Z,19.10
2023-10-12T08:58:45.691Z,14.30
2023-10-12T09:01:24.610Z,12.70
2023-10-12T09:04:12.898Z,11.30
2023-10-12T09:06:57.195Z,14.50
2023-10-12T09:09:48.205Z,13.00
2023-10-12T09:12:22.938Z,12.50
2023-10-12T09:14:57.020Z,12.60
2023-10-12T09:17:33.556Z,12.50
2023-10-12T09:20:30.098Z,13.00
2023-10-12T09:23:13.661Z,15.90
2023-10-12T09:26:16.447Z,10.30
2023-10-12T09:29:09.047Z,12.40
2023-10-12T09:32:18.428Z,14.40
2023-10-12T09:35:12.241Z,11.70
2023-10-12T09:37:52.587Z,15.40
2023-10-12T09:40:30.664Z,10.40
2023-10-12T09:43:08.688Z,11.00
2023-10-12T09:45:47.101Z,16.40
2023-10-12T09:48:25.817Z,15.00
2023-10-12T09:51:02.371Z,13.30
2023-10-12T09:53:54.816Z,12.90
2023-10-12T09:56:35.279Z,15.50
2023-10-12T09:59:15.032Z,11.90
2023-10-12T10:01:51.747Z,15.60
2023-10-12T10:04:36.051Z,14.40
2023-10-12T10:07:19.829Z,16.30
2023-10-12T10:09:57.563Z,16.60
2023-10-12T10:12:36.380Z,12.40
2023-10-12T10:15:17.370Z,15.80
2023-10-12T10:17:57.507Z,10.40
2023-10-12T10:20:57.577Z,11.00
2023-10-12T10:23:38.484Z,12.40
2023-10-12T10:26:24.936Z,19.50
2023-10-12T10:29:05.953Z,11.40
2023-10-12T10:31:44.537Z,12.50
2023-10-12T10:34:24.628Z,9.30
2023-10-12T10:36:59.262Z,11.50
2023-10-12T10:39:35.682Z,11.80
2023-10-12T10:42:11.421Z,10.30
2023-10-12T10:44:45.811Z,10.50
2023-10-12T10:47:22.522Z,10.10
2023-10-12T10:49:56.314Z,10.70
2023-10-12T10:52:33.891Z,9.70
2023-10-12T10:55:11.767Z,13.10
2023-10-12T10:57:45.433Z,10.20
2023-10-12T11:00:37.313Z,9.90
2023-10-12T11:03:12.526Z,12.70
2023-10-12T11:05:48.047Z,10.00
2023-10-12T11:08:28.262Z,9.90
2023-10-12T11:11:26.786Z,9.50
2023-10-12T11:14:00.537Z,13.70
2023-10-12T11:16:34.768Z,10.80
2023-10-12T11:19:10.270Z,14.10
2023-10-12T11:21:53.185Z,10.40
2023-10-12T11:24:28.230Z,9.80
2023-10-12T11:27:03.113Z,13.50
2023-10-12T11:29:51.306Z,11.60
2023-10-12T11:32:25.603Z,12.60
2023-10-12T11:35:01.139Z,11.80
2023-10-12T11:37:43.528Z,11.30
2023-10-12T11:40:32.062Z,11.90
2023-10-12T11:43:05.565Z,10.60
2023-10-12T11:45:55.632Z,7.40
2023-10-12T11:48:29.848Z,8.40
2023-10-12T11:51:12.759Z,13.90
2023-10-12T11:53:46.534Z,11.30
2023-10-12T11:56:24.080Z,13.30
2023-10-12T11:58:58.580Z,11.50
2023-10-12T12:01:34.509Z,12.10
2023-10-12T12:04:12.008Z,9.50
2023-10-12T12:06:46.466Z,13.30
2023-10-12T12:09:20.000Z,9.60
2023-10-12T12:11:57.694Z,16.70
2023-10-12T12:14:31.025Z,38.50
2023-10-12T12:17:05.303Z,65.40
2023-10-12T12:19:42.048Z,85.50
2023-10-12T12:22:15.642Z,85.20
2023-10-12T12:24:49.882Z,134.20
2023-10-12T12:27:39.977Z,101.70
2023-10-12T12:30:54.522Z,95.60
2023-10-12T12:33:18.022Z,84.60
2023-10-12T12:36:01.250Z,79.10
2023-10-12T12:38:47.739Z,83.20
2023-10-12T12:41:23.643Z,77.20
2023-10-12T12:44:00.375Z,73.30
2023-10-12T12:46:34.205Z,67.10
2023-10-12T12:49:08.340Z,71.70
2023-10-12T12:51:42.678Z,72.00
2023-10-12T12:54:16.329Z,59.70
2023-10-12T12:56:54.384Z,69.90
2023-10-12T12:59:29.556Z,66.20
2023-10-12T13:02:04.580Z,62.40
2023-10-12T13:04:38.229Z,58.60
2023-10-12T13:07:16.098Z,49.10
2023-10-12T13:09:49.929Z,50.30
2023-10-12T13:12:23.974Z,46.30
2023-10-12T13:15:01.315Z,46.80
2023-10-12T13:17:35.974Z,42.30
2023-10-12T13:20:19.577Z,37.80
2023-10-12T13:22:53.351Z,41.60
2023-10-12T13:25:27.712Z,33.30
2023-10-12T13:28:01.731Z,33.20
2023-10-12T13:30:35.279Z,33.80
2023-10-12T13:33:12.460Z,29.40
2023-10-12T13:35:47.445Z,27.30
2023-10-12T13:38:20.870Z,29.50
2023-10-12T13:40:54.645Z,27.50
2023-10-12T13:43:31.944Z,30.50
2023-10-12T13:46:08.980Z,25.40
2023-10-12T13:48:43.184Z,25.80
2023-10-12T13:51:21.181Z,27.70
2023-10-12T13:53:56.206Z,24.10
2023-10-12T13:56:31.368Z,21.50
2023-10-12T13:59:06.389Z,25.60
2023-10-12T14:01:39.997Z,20.90
2023-10-12T14:04:29.922Z,24.30
2023-10-12T14:07:04.721Z,19.10
2023-10-12T14:09:45.347Z,17.60
2023-10-12T14:12:19.974Z,19.70
2023-10-12T14:14:54.760Z,19.50
2023-10-12T14:17:28.174Z,19.60
2023-10-12T14:20:02.804Z,17.10
2023-10-12T14:22:37.800Z,16.80
2023-10-12T14:25:19.035Z,20.50
2023-10-12T14:27:53.165Z,18.50
2023-10-12T14:30:29.560Z,14.60
2023-10-12T14:33:04.964Z,17.90
2023-10-12T14:35:40.259Z,19.70
2023-10-12T14:38:15.237Z,15.50
2023-10-12T14:40:49.603Z,15.20
2023-10-12T14:43:25.112Z,15.90
2023-10-12T14:46:00.010Z,14.40
2023-10-12T14:48:33.607Z,13.70
2023-10-12T14:51:13.540Z,17.30
2023-10-12T14:53:48.974Z,15.40
2023-10-12T14:56:28.611Z,16.30
2023-10-12T14:59:02.696Z,14.10
2023-10-12T15:01:39.509Z,21.00
2023-10-12T15:04:13.519Z,18.40
2023-10-12T15:06:47.282Z,17.80
2023-10-12T15:09:27.367Z,19.50
2023-10-12T15:12:03.833Z,18.80
2023-10-12T15:14:38.099Z,16.70
2023-10-12T15:17:15.732Z,20.90
2023-10-12T15:19:49.802Z,19.50
2023-10-12T15:22:24.817Z,18.40
2023-10-12T15:24:58.579Z,19.20
2023-10-12T15:27:33.729Z,19.00
2023-10-12T15:30:11.582Z,18.00
2023-10-12T15:32:45.306Z,17.40
2023-10-12T15:35:24.632Z,18.00
2023-10-12T15:37:59.447Z,17.90
2023-10-12T15:40:37.505Z,15.60
2023-10-12T15:43:16.448Z,18.10
2023-10-12T15:45:49.929Z,18.20
2023-10-12T15:48:28.297Z,21.10
2023-10-12T15:51:02.143Z,15.30
2023-10-12T15:53:35.578Z,16.30
2023-10-12T15:56:11.344Z,21.20
2023-10-12T15:58:46.916Z,15.70
2023-10-12T16:01:22.246Z,18.30
2023-10-12T16:03:56.765Z,16.10
2023-10-12T16:06:31.162Z,16.50
2023-10-12T16:09:10.963Z,18.60
2023-10-12T16:11:45.014Z,17.40
2023-10-12T16:14:19.046Z,15.50
2023-10-12T16:16:52.714Z,15.50
2023-10-12T16:19:26.412Z,13.80
2023-10-12T16:22:00.688Z,15.80
2023-10-12T16:24:34.568Z,16.10
2023-10-12T16:27:08.147Z,14.20
2023-10-12T16:29:56.758Z,13.20
2023-10-12T16:32:33.362Z,15.10
2023-10-12T16:35:07.633Z,14.50
2023-10-12T16:37:41.278Z,12.80
2023-10-12T16:40:16.806Z,17.70
2023-10-12T16:42:51.224Z,13.60
2023-10-12T16:45:26.629Z,14.40
2023-10-12T16:48:00.251Z,14.00
2023-10-12T16:50:33.873Z,15.40
2023-10-12T16:53:08.821Z,13.70
2023-10-12T16:55:43.206Z,13.40
2023-10-12T16:58:19.440Z,16.30
2023-10-12T17:01:00.012Z,12.40
2023-10-12T17:03:37.109Z,15.10
2023-10-12T17:06:11.035Z,11.10
2023-10-12T17:08:45.051Z,15.10
2023-10-12T17:11:18.927Z,11.70
2023-10-12T17:13:52.740Z,14.90
2023-10-12T17:16:31.752Z,13.60
2023-10-12T17:19:06.191Z,12.20
2023-10-12T17:21:40.953Z,14.60
2023-10-12T17:24:14.970Z,18.60
2023-10-12T17:26:52.323Z,15.90
2023-10-12T17:29:26.154Z,18.20
2023-10-12T17:32:00.038Z,14.50
2023-10-12T17:34:34.288Z,19.90
2023-10-12T17:37:10.125Z,14.80
2023-10-12T17:39:43.542Z,12.40
2023-10-12T17:42:16.969Z,18.00
2023-10-12T17:44:51.293Z,14.50
2023-10-12T17:47:24.707Z,42.00
2023-10-12T17:50:02.987Z,15.80
2023-10-12T17:52:38.558Z,19.80
2023-10-12T17:55:39.331Z,18.20
2023-10-12T17:58:15.137Z,20.10
2023-10-12T18:00:48.883Z,19.40
2023-10-12T18:03:22.348Z,19.80
2023-10-12T18:05:58.367Z,22.20
2023-10-12T18:08:31.999Z,21.20
2023-10-12T18:11:11.297Z,26.20
2023-10-12T18:13:45.529Z,25.20
2023-10-12T18:16:19.741Z,26.00
2023-10-12T18:19:03.803Z,28.40
2023-10-12T18:21:37.607Z,34.30
2023-10-12T18:24:12.983Z,28.80
2023-10-12T18:26:46.669Z,31.80
2023-10-12T18:29:20.429Z,25.90
2023-10-12T18:31:54.356Z,30.20
2023-10-12T18:34:29.205Z,26.30
2023-10-12T18:37:12.330Z,30.10
2023-10-12T18:39:48.966Z,29.40
2023-10-12T18:42:23.619Z,24.10
2023-10-12T18:44:59.004Z,25.80
2023-10-12T18:47:32.916Z,24.20
2023-10-12T18:50:11.920Z,18.60
2023-10-12T18:52:46.436Z,23.70
2023-10-12T18:55:19.961Z,23.70
2023-10-12T18:57:55.092Z,21.20
2023-10-12T19:00:29.707Z,19.70
2023-10-12T19:03:04.140Z,22.60
2023-10-12T19:05:41.209Z,19.90
2023-10-12T19:08:15.694Z,20.20
2023-10-12T19:10:49.318Z,19.00
2023-10-12T19:13:24.708Z,18.30
2023-10-12T19:15:58.864Z,22.20
2023-10-12T19:18:34.658Z,19.30
2023-10-12T19:21:08.203Z,16.50
2023-10-12T19:23:42.241Z,18.40
2023-10-12T19:26:16.554Z,18.50
2023-10-12T19:28:51.623Z,21.20
2023-10-12T19:31:28.386Z,19.30
2023-10-12T19:34:02.136Z,18.90
2023-10-12T19:36:35.569Z,15.90
2023-10-12T19:39:11.898Z,15.60
2023-10-12T19:41:45.263Z,20.30
2023-10-12T19:44:20.645Z,18.10
2023-10-12T19:46:54.283Z,19.60
2023-10-12T19:49:28.877Z,16.30
2023-10-12T19:52:02.465Z,17.60
2023-10-12T19:54:37.463Z,16.90
2023-10-12T19:57:11.688Z,17.60
2023-10-12T19:59:47.259Z,17.10
2023-10-12T20:02:22.706Z,18.10
2023-10-12T20:04:56.313Z,15.80
2023-10-12T20:07:29.844Z,19.00
2023-10-12T20:10:06.267Z,15.00
2023-10-12T20:12:39.701Z,18.70
2023-10-12T20:15:16.390Z,13.30
2023-10-12T20:17:50.799Z,16.40
2023-10-12T20:20:26.226Z,15.30
2023-10-12T20:22:59.594Z,14.20
2023-10-12T20:25:33.085Z,17.70
2023-10-12T20:28:08.125Z,14.20
2023-10-12T20:30:45.184Z,17.80
2023-10-12T20:33:20.303Z,14.40
2023-10-12T20:36:01.547Z,16.60
2023-10-12T20:38:35.213Z,15.80
2023-10-12T20:41:08.699Z,14.80
2023-10-12T20:43:42.223Z,19.20
2023-10-12T20:46:17.300Z,17.80
2023-10-12T20:48:51.000Z,17.20
2023-10-12T20:51:24.384Z,16.30
2023-10-12T20:54:00.188Z,18.20
2023-10-12T20:56:37.282Z,17.90
2023-10-12T20:59:18.551Z,15.80
2023-10-12T21:02:02.258Z,24.40
2023-10-12T21:04:36.551Z,18.20
2023-10-12T21:07:12.270Z,22.30
2023-10-12T21:10:01.788Z,22.10
2023-10-12T21:12:37.412Z,22.30
2023-10-12T21:15:20.498Z,19.20
2023-10-12T21:17:59.450Z,24.90
2023-10-12T21:20:44.697Z,24.00
2023-10-12T21:23:21.298Z,24.00
2023-10-12T21:26:03.289Z,25.80
2023-10-12T21:28:39.256Z,23.30
2023-10-12T21:31:15.661Z,27.10
2023-10-12T21:33:51.819Z,23.40
2023-10-12T21:36:27.218Z,24.70
2023-10-12T21:39:01.071Z,21.60
2023-10-12T21:41:34.535Z,22.50
2023-10-12T21:44:10.671Z,26.60
2023-10-12T21:46:45.126Z,22.20
2023-10-12T21:49:20.766Z,18.90
2023-10-12T21:51:55.722Z,24.30
2023-10-12T21:54:29.324Z,21.90
2023-10-12T21:57:03.558Z,27.60
2023-10-12T21:59:37.060Z,23.10
2023-10-12T22:02:17.306Z,25.10
2023-10-12T22:05:14.601Z,21.90
2023-10-12T22:08:06.152Z,24.20
2023-10-12T22:10:39.412Z,20.50
2023-10-12T22:13:20.374Z,19.40
2023-10-12T22:15:55.777Z,18.60
2023-10-12T22:18:29.448Z,22.20
2023-10-12T22:21:04.725Z,20.30
2023-10-12T22:23:38.242Z,21.50
2023-10-12T22:26:11.719Z,21.70
2023-10-12T22:28:45.047Z,20.60
2023-10-12T22:31:19.551Z,19.40
2023-10-12T22:33:53.054Z,19.30
2023-10-12T22:36:26.448Z,18.50
2023-10-12T22:38:59.820Z,15.10
2023-10-12T22:41:36.980Z,17.20
2023-10-12T22:44:11.391Z,20.90
2023-10-12T22:46:45.729Z,20.70
2023-10-12T22:49:20.235Z,19.20
2023-10-12T22:51:53.844Z,16.70
2023-10-12T22:54:34.438Z,17.60
2023-10-12T22:57:07.995Z,20.10
2023-10-12T22:59:41.916Z,20.70
2023-10-12T23:02:15.514Z,19.10
2023-10-12T23:04:49.052Z,22.00
2023-10-12T23:07:22.706Z,23.60
2023-10-12T23:10:06.195Z,21.80
2023-10-12T23:12:42.910Z,20.70
2023-10-12T23:15:16.458Z,21.70
2023-10-12T23:18:02.968Z,21.90
2023-10-12T23:20:39.374Z,20.30
2023-10-12T23:23:14.034Z,25.10
2023-10-12T23:25:49.054Z,25.60
2023-10-12T23:28:22.763Z,21.80
2023-10-12T23:31:14.257Z,23.00
2023-10-12T23:33:49.916Z,24.00
2023-10-12T23:36:29.062Z,20.50
2023-10-12T23:39:10.827Z,18.20
2023-10-12T23:41:46.294Z,18.20
2023-10-12T23:44:36.492Z,20.80
2023-10-12T23:47:26.711Z,20.00
2023-10-12T23:50:17.156Z,20.90
2023-10-12T23:53:08.860Z,21.30
2023-10-12T23:55:43.411Z,22.10
2023-10-12T23:58:17.096Z,20.10
